createdAt,value
2019-03-18T00:02:29.173Z,1.60
2019-03-18T00:04:58.246Z,1.37
2019-03-18T00:07:28.516Z,1.60
2019-03-18T00:09:57.562Z,2.20
2019-03-18T00:12:29.407Z,1.60
2019-03-18T00:15:01.487Z,1.95
2019-03-18T00:17:29.116Z,2.15
2019-03-18T00:19:59.572Z,2.22
2019-03-18T00:22:31.551Z,2.27
2019-03-18T00:25:03.010Z,2.45
2019-03-18T00:27:33.509Z,2.87
2019-03-18T00:30:02.635Z,2.30
2019-03-18T00:32:31.649Z,1.57
2019-03-18T00:35:00.981Z,1.37
2019-03-18T00:37:29.979Z,1.45
2019-03-18T00:40:00.731Z,1.53
2019-03-18T00:42:32.874Z,1.90
2019-03-18T00:45:13.770Z,1.60
2019-03-18T00:47:32.615Z,2.35
2019-03-18T00:50:01.709Z,2.33
2019-03-18T00:52:30.713Z,2.30
2019-03-18T00:54:59.741Z,2.20
2019-03-18T00:57:30.175Z,2.08
2019-03-18T00:59:59.199Z,2.12
2019-03-18T01:02:30.670Z,1.92
2019-03-18T01:05:04.051Z,1.92
2019-03-18T01:07:33.020Z,2.08
2019-03-18T01:10:01.963Z,1.90
2019-03-18T01:12:31.373Z,2.25
2019-03-18T01:15:00.589Z,1.70
2019-03-18T01:17:34.140Z,2.45
2019-03-18T01:20:06.265Z,1.85
2019-03-18T01:22:36.904Z,2.22
2019-03-18T01:25:07.236Z,2.05
2019-03-18T01:27:37.432Z,2.22
2019-03-18T01:30:11.987Z,2.35
2019-03-18T01:32:40.950Z,1.62
2019-03-18T01:35:10.915Z,2.02
2019-03-18T01:37:39.934Z,2.00
2019-03-18T01:40:12.520Z,2.00
2019-03-18T01:42:46.637Z,1.80
2019-03-18T01:45:15.089Z,1.60
2019-03-18T01:47:47.064Z,1.90
2019-03-18T01:50:17.595Z,1.77
2019-03-18T01:52:48.701Z,1.60
2019-03-18T01:55:21.402Z,1.92
2019-03-18T01:57:50.364Z,2.20
2019-03-18T02:00:19.328Z,1.92
2019-03-18T02:02:50.737Z,2.00
2019-03-18T02:05:19.434Z,1.75
2019-03-18T02:07:48.763Z,1.73
2019-03-18T02:10:19.247Z,2.12
2019-03-18T02:12:48.256Z,1.67
2019-03-18T02:15:18.746Z,1.75
2019-03-18T02:17:51.404Z,1.87
2019-03-18T02:20:22.850Z,1.85
2019-03-18T02:22:51.829Z,2.55
2019-03-18T02:25:20.781Z,2.10
2019-03-18T02:27:49.751Z,2.65
2019-03-18T02:30:19.284Z,1.60
2019-03-18T02:32:48.560Z,1.87
2019-03-18T02:35:19.305Z,2.25
2019-03-18T02:37:48.338Z,1.85
2019-03-18T02:40:17.333Z,1.65
2019-03-18T02:42:47.628Z,1.62
2019-03-18T02:45:19.477Z,1.45
2019-03-18T02:47:48.578Z,1.82
2019-03-18T02:50:20.958Z,1.77
2019-03-18T02:52:53.631Z,1.80
2019-03-18T02:55:22.585Z,1.40
2019-03-18T02:57:51.613Z,1.50
2019-03-18T03:00:20.609Z,1.37
2019-03-18T03:02:55.867Z,1.10
2019-03-18T03:05:20.480Z,1.30
2019-03-18T03:07:49.769Z,1.22
2019-03-18T03:13:30.465Z,1.12
2019-03-18T03:15:59.441Z,1.32
2019-03-18T03:18:28.408Z,1.12
2019-03-18T03:21:00.109Z,1.45
2019-03-18T03:23:29.061Z,1.22
2019-03-18T03:25:58.031Z,1.30
2019-03-18T03:28:28.079Z,1.22
2019-03-18T03:33:26.768Z,1.00
2019-03-18T03:35:55.735Z,0.72
2019-03-18T03:38:24.735Z,0.90
2019-03-18T03:40:56.761Z,1.50
2019-03-18T03:43:27.868Z,1.00
2019-03-18T03:45:56.901Z,1.80
2019-03-18T03:48:25.933Z,1.05
2019-03-18T03:50:54.893Z,1.50
2019-03-18T03:53:24.571Z,1.20
2019-03-18T03:55:53.540Z,1.10
2019-03-18T03:58:22.770Z,1.30
2019-03-18T04:00:56.491Z,1.60
2019-03-18T04:03:37.820Z,1.22
2019-03-18T04:05:55.044Z,1.30
2019-03-18T04:08:27.105Z,1.40
2019-03-18T04:10:56.345Z,1.60
2019-03-18T04:13:25.846Z,2.35
2019-03-18T04:16:02.880Z,1.25
2019-03-18T04:18:31.829Z,1.55
2019-03-18T04:21:07.556Z,1.50
2019-03-18T04:23:36.524Z,1.72
2019-03-18T04:26:08.410Z,1.80
2019-03-18T04:28:37.535Z,2.62
2019-03-18T04:31:09.111Z,2.10
2019-03-18T04:33:42.846Z,1.90
2019-03-18T04:36:11.804Z,2.55
2019-03-18T04:38:43.210Z,2.00
2019-03-18T04:41:13.706Z,1.95
2019-03-18T04:43:45.948Z,2.10
2019-03-18T04:46:15.376Z,2.15
2019-03-18T04:48:44.369Z,1.92
2019-03-18T04:51:17.514Z,2.58
2019-03-18T04:53:46.538Z,2.00
2019-03-18T04:56:16.984Z,2.12
2019-03-18T04:58:48.924Z,2.17
2019-03-18T05:01:21.135Z,2.37
2019-03-18T05:03:51.916Z,2.22
2019-03-18T05:06:24.374Z,2.45
2019-03-18T05:08:53.338Z,2.60
2019-03-18T05:13:53.198Z,2.62
2019-03-18T05:16:22.367Z,2.22
2019-03-18T05:18:51.360Z,1.67
2019-03-18T05:21:26.168Z,1.90
2019-03-18T05:30:41.298Z,2.00
2019-03-18T05:33:16.828Z,2.65
2019-03-18T05:35:46.088Z,1.60
2019-03-18T05:38:16.414Z,1.40
2019-03-18T05:40:47.157Z,1.62
2019-03-18T05:43:18.153Z,1.47
2019-03-18T05:45:47.269Z,1.10
2019-03-18T05:48:18.982Z,1.50
2019-03-18T05:50:47.929Z,1.62
2019-03-18T05:53:21.977Z,1.32
2019-03-18T05:55:50.938Z,1.25
2019-03-18T06:01:11.952Z,0.95
2019-03-18T06:03:41.255Z,1.15
2019-03-18T06:06:11.977Z,1.00
2019-03-18T06:08:43.484Z,1.37
2019-03-18T06:11:16.745Z,0.75
2019-03-18T06:13:45.821Z,1.20
2019-03-18T06:16:14.828Z,1.15
2019-03-18T06:18:43.803Z,1.35
2019-03-18T06:21:12.788Z,1.15
2019-03-18T06:23:41.862Z,1.65
2019-03-18T06:26:18.179Z,1.40
2019-03-18T06:28:47.471Z,1.30
2019-03-18T06:31:19.513Z,1.60
2019-03-18T06:33:48.529Z,1.92
2019-03-18T06:36:18.667Z,1.92
2019-03-18T06:38:47.632Z,1.62
2019-03-18T06:41:17.483Z,1.65
2019-03-18T06:43:47.201Z,2.15
2019-03-18T06:46:16.519Z,2.30
2019-03-18T06:48:45.558Z,1.67
2019-03-18T06:51:16.637Z,1.87
2019-03-18T06:53:45.642Z,1.50
2019-03-18T06:56:14.623Z,1.50
2019-03-18T06:58:44.408Z,1.90
2019-03-18T07:01:13.394Z,1.70
2019-03-18T07:03:44.678Z,1.82
2019-03-18T07:06:14.658Z,1.98
2019-03-18T07:08:43.618Z,1.80
2019-03-18T07:11:12.936Z,1.92
2019-03-18T07:13:44.026Z,1.77
2019-03-18T07:16:13.992Z,1.72
2019-03-18T07:18:45.925Z,1.98
2019-03-18T07:21:22.210Z,1.75
2019-03-18T07:23:52.866Z,1.77
2019-03-18T07:26:23.792Z,2.45
2019-03-18T07:28:53.798Z,2.20
2019-03-18T07:33:53.855Z,2.22
2019-03-18T07:36:22.802Z,2.12
2019-03-18T07:38:53.477Z,2.40
2019-03-18T07:41:22.469Z,2.30
2019-03-18T07:43:54.194Z,2.55
2019-03-18T07:46:23.159Z,2.27
2019-03-18T07:51:37.696Z,2.37
2019-03-18T07:54:07.666Z,2.67
2019-03-18T07:56:39.502Z,3.42
2019-03-18T07:59:10.783Z,2.77
2019-03-18T08:01:39.823Z,2.95
2019-03-18T08:04:08.809Z,2.95
2019-03-18T08:06:38.450Z,2.77
2019-03-18T08:09:07.707Z,2.80
2019-03-18T08:11:39.097Z,2.97
2019-03-18T08:14:08.149Z,2.72
2019-03-18T08:16:37.476Z,2.65
2019-03-18T08:19:06.458Z,3.12
2019-03-18T08:21:37.085Z,2.50
2019-03-18T08:24:06.417Z,2.70
2019-03-18T08:36:12.003Z,2.33
2019-03-18T08:38:42.585Z,2.50
2019-03-18T08:41:15.895Z,1.72
2019-03-18T08:43:48.199Z,2.02
2019-03-18T08:46:17.173Z,1.42
2019-03-18T08:48:55.747Z,1.75
2019-03-18T08:51:19.686Z,1.62
2019-03-18T08:53:48.681Z,1.95
2019-03-18T08:56:23.601Z,1.70
2019-03-18T08:58:52.622Z,1.57
2019-03-18T09:01:26.285Z,1.90
2019-03-18T09:03:55.251Z,1.47
2019-03-18T09:06:24.247Z,1.62
2019-03-18T09:08:53.280Z,1.00
2019-03-18T09:11:22.351Z,1.45
2019-03-18T09:13:52.537Z,1.42
2019-03-18T09:16:23.161Z,1.75
2019-03-18T09:18:54.230Z,1.50
2019-03-18T09:21:23.187Z,1.40
2019-03-18T09:23:52.143Z,1.50
2019-03-18T09:26:21.113Z,1.50
2019-03-18T09:28:52.651Z,1.52
2019-03-18T09:31:21.762Z,1.50
2019-03-18T09:33:51.332Z,1.47
2019-03-18T09:36:20.285Z,1.60
2019-03-18T09:38:51.539Z,1.50
2019-03-18T09:41:22.032Z,1.77
2019-03-18T09:43:51.006Z,2.20
2019-03-18T09:46:19.966Z,1.90
2019-03-18T09:48:48.920Z,1.87
2019-03-18T09:51:20.068Z,2.35
2019-03-18T09:53:49.060Z,2.00
2019-03-18T09:56:18.037Z,2.45
2019-03-18T09:58:46.996Z,2.15
2019-03-18T10:01:16.088Z,2.08
2019-03-18T10:03:46.562Z,2.50
2019-03-18T10:06:15.591Z,2.42
2019-03-18T10:08:44.551Z,2.87
2019-03-18T10:11:13.543Z,2.45
2019-03-18T10:13:44.820Z,2.60
2019-03-18T10:16:13.816Z,2.52
2019-03-18T10:18:45.841Z,2.52
2019-03-18T10:21:14.833Z,2.43
2019-03-18T10:23:43.868Z,2.37
2019-03-18T10:26:12.832Z,2.42
2019-03-18T10:28:41.890Z,2.00
2019-03-18T10:31:10.843Z,1.62
2019-03-18T10:33:45.581Z,1.45
2019-03-18T10:36:14.538Z,1.60
2019-03-18T10:41:18.997Z,1.40
2019-03-18T10:43:48.041Z,1.40
2019-03-18T10:46:19.839Z,1.62
2019-03-18T10:48:50.454Z,1.85
2019-03-18T10:51:19.550Z,1.87
2019-03-18T10:53:48.508Z,2.33
2019-03-18T10:56:17.529Z,1.47
2019-03-18T10:58:46.686Z,2.20
2019-03-18T11:01:15.621Z,1.40
2019-03-18T11:03:44.580Z,1.95
2019-03-18T11:06:13.591Z,2.08
2019-03-18T11:08:45.600Z,2.40
2019-03-18T11:11:19.284Z,1.87
2019-03-18T11:13:48.241Z,1.50
2019-03-18T11:16:17.208Z,1.82
2019-03-18T11:18:46.161Z,2.10
2019-03-18T11:21:17.815Z,1.87
2019-03-18T11:23:48.013Z,1.90
2019-03-18T11:26:18.573Z,2.10
2019-03-18T11:28:47.557Z,1.92
2019-03-18T11:31:18.115Z,1.77
2019-03-18T11:33:49.775Z,1.80
2019-03-18T11:36:18.733Z,1.12
2019-03-18T11:38:47.745Z,1.42
2019-03-18T11:41:18.949Z,1.67
2019-03-18T11:43:52.505Z,0.98
2019-03-18T11:46:21.487Z,1.30
2019-03-18T11:48:50.515Z,1.40
2019-03-18T11:51:19.593Z,1.77
2019-03-18T11:53:50.153Z,1.40
2019-03-18T11:56:23.504Z,1.35
2019-03-18T11:58:53.897Z,1.20
2019-03-18T12:01:26.267Z,1.70
2019-03-18T12:03:58.154Z,1.82
2019-03-18T12:06:27.089Z,2.60
2019-03-18T12:09:00.329Z,2.12
2019-03-18T12:11:31.718Z,1.82
2019-03-18T12:14:01.857Z,1.42
2019-03-18T12:16:30.888Z,1.40
2019-03-18T12:18:59.899Z,1.90
2019-03-18T12:21:29.683Z,1.22
2019-03-18T12:24:02.733Z,1.67
2019-03-18T12:26:34.563Z,1.35
2019-03-18T12:29:06.937Z,1.32
2019-03-18T12:31:35.660Z,1.10
2019-03-18T12:34:04.630Z,1.22
2019-03-18T12:36:33.620Z,1.47
2019-03-18T12:39:03.748Z,1.10
2019-03-18T12:44:02.516Z,1.65
2019-03-18T12:46:32.768Z,1.47
2019-03-18T12:49:02.787Z,1.45
2019-03-18T12:54:00.291Z,1.95
2019-03-18T12:56:29.395Z,1.20
2019-03-18T12:59:03.417Z,1.30
2019-03-18T13:01:32.437Z,1.77
2019-03-18T13:04:01.444Z,1.67
2019-03-18T13:06:33.301Z,1.52
2019-03-18T13:09:04.895Z,1.65
2019-03-18T13:11:34.224Z,1.60
2019-03-18T13:14:09.193Z,1.23
2019-03-18T13:16:38.224Z,1.57
2019-03-18T13:19:07.323Z,2.00
2019-03-18T13:21:36.264Z,1.67
2019-03-18T13:24:05.213Z,1.57
2019-03-18T13:26:34.275Z,1.22
2019-03-18T13:29:03.248Z,1.60
2019-03-18T13:31:35.495Z,1.17
2019-03-18T13:34:07.317Z,1.20
2019-03-18T13:36:40.237Z,1.80
2019-03-18T13:39:09.265Z,1.40
2019-03-18T13:41:39.893Z,1.50
2019-03-18T13:44:11.919Z,2.08
2019-03-18T13:46:40.867Z,1.85
2019-03-18T13:49:09.849Z,1.55
2019-03-18T13:51:41.803Z,2.00
2019-03-18T13:54:14.179Z,2.08
2019-03-18T13:56:43.144Z,1.32
2019-03-18T14:01:42.457Z,1.80
2019-03-18T14:04:12.679Z,1.12
2019-03-18T14:06:41.685Z,0.80
2019-03-18T14:09:10.974Z,1.10
2019-03-18T14:11:45.304Z,1.72
2019-03-18T14:14:14.345Z,1.30
2019-03-18T14:16:43.300Z,1.30
2019-03-18T14:19:14.828Z,1.52
2019-03-18T14:21:43.778Z,1.47
2019-03-18T14:24:14.186Z,1.07
2019-03-18T14:26:45.600Z,1.17
2019-03-18T14:29:14.728Z,1.17
2019-03-18T14:31:47.284Z,1.33
2019-03-18T14:34:16.310Z,1.20
2019-03-18T14:36:45.349Z,1.40
2019-03-18T14:39:15.848Z,1.10
2019-03-18T14:41:47.900Z,1.40
2019-03-18T14:44:20.495Z,1.40
2019-03-18T14:46:51.572Z,1.30
2019-03-18T14:49:20.537Z,1.50
2019-03-18T14:51:52.915Z,1.67
2019-03-18T14:54:21.906Z,1.50
2019-03-18T14:56:52.412Z,1.52
2019-03-18T14:59:22.870Z,1.82
2019-03-18T15:01:54.919Z,1.70
2019-03-18T15:04:29.982Z,0.98
2019-03-18T15:06:59.004Z,1.70
2019-03-18T15:09:28.144Z,1.17
2019-03-18T15:11:57.125Z,1.55
2019-03-18T15:14:27.741Z,1.62
2019-03-18T15:16:58.375Z,1.37
2019-03-18T15:19:29.296Z,1.02
2019-03-18T15:21:58.908Z,1.20
2019-03-18T15:24:35.285Z,1.00
2019-03-18T15:27:08.551Z,1.67
2019-03-18T15:29:40.558Z,1.35
2019-03-18T15:32:10.551Z,1.30
2019-03-18T15:34:39.505Z,1.60
2019-03-18T15:37:08.483Z,1.60
2019-03-18T15:39:37.659Z,1.27
2019-03-18T15:42:06.597Z,1.43
2019-03-18T15:44:35.655Z,1.35
2019-03-18T15:47:10.139Z,1.80
2019-03-18T15:49:41.208Z,1.12
2019-03-18T15:52:11.472Z,1.45
2019-03-18T15:54:53.720Z,1.52
2019-03-18T15:57:28.988Z,1.25
2019-03-18T15:59:47.395Z,1.20
2019-03-18T16:02:16.372Z,1.50
2019-03-18T16:04:47.305Z,1.60
2019-03-18T16:07:16.152Z,1.60
2019-03-18T16:09:48.055Z,1.52
2019-03-18T16:12:24.600Z,2.08
2019-03-18T16:14:53.582Z,1.92
2019-03-18T16:17:22.613Z,1.50
2019-03-18T16:19:51.642Z,1.85
2019-03-18T16:22:23.783Z,1.80
2019-03-18T16:24:51.340Z,1.70
2019-03-18T16:27:27.438Z,1.65
2019-03-18T16:30:04.044Z,2.02
2019-03-18T16:32:50.669Z,1.85
2019-03-18T16:35:21.209Z,2.40
2019-03-18T16:37:53.419Z,1.70
2019-03-18T16:40:23.061Z,1.87
2019-03-18T16:42:52.098Z,2.02
2019-03-18T16:45:21.062Z,1.47
2019-03-18T16:47:50.107Z,1.87
2019-03-18T16:50:26.163Z,1.47
2019-03-18T16:52:57.461Z,1.55
2019-03-18T16:55:25.790Z,1.62
2019-03-18T16:57:54.760Z,1.92
2019-03-18T17:00:30.674Z,2.08
2019-03-18T17:02:59.706Z,1.75
2019-03-18T17:05:29.724Z,1.62
2019-03-18T17:10:35.106Z,1.45
2019-03-18T17:13:08.570Z,1.85
2019-03-18T17:15:37.546Z,2.00
2019-03-18T17:18:06.570Z,3.20
2019-03-18T17:20:36.949Z,1.80
2019-03-18T17:23:06.278Z,1.67
2019-03-18T17:25:36.804Z,2.00
2019-03-18T17:28:09.211Z,1.70
2019-03-18T17:30:42.316Z,2.00
2019-03-18T17:33:10.283Z,1.47
2019-03-18T17:35:48.375Z,1.95
2019-03-18T17:38:17.371Z,1.87
2019-03-18T17:40:46.400Z,1.50
2019-03-18T17:43:15.498Z,2.07
2019-03-18T17:45:49.796Z,2.02
2019-03-18T17:48:20.245Z,2.52
2019-03-18T17:50:53.533Z,2.10
2019-03-18T17:53:25.218Z,1.77
2019-03-18T17:55:59.462Z,2.75
2019-03-18T17:58:28.584Z,1.80
2019-03-18T18:00:59.179Z,2.30
2019-03-18T18:03:28.216Z,1.98
2019-03-18T18:05:57.220Z,2.60
2019-03-18T18:08:26.536Z,2.30
2019-03-18T18:10:55.533Z,1.55
2019-03-18T18:16:57.650Z,2.02
2019-03-18T18:19:29.782Z,1.90
2019-03-18T18:21:59.238Z,1.80
2019-03-18T18:24:32.270Z,2.83
2019-03-18T18:27:05.121Z,3.12
2019-03-18T18:29:34.070Z,2.27
2019-03-18T18:32:03.153Z,2.20
2019-03-18T18:34:32.128Z,2.20
2019-03-18T18:37:04.010Z,2.08
2019-03-18T18:39:36.433Z,2.25
2019-03-18T18:42:05.395Z,2.12
2019-03-18T18:47:03.538Z,1.92
2019-03-18T18:49:32.636Z,2.10
2019-03-18T18:52:06.905Z,2.15
2019-03-18T18:54:35.897Z,1.85
2019-03-18T18:57:04.933Z,2.00
2019-03-18T18:59:36.646Z,1.82
2019-03-18T19:02:08.127Z,1.77
2019-03-18T19:04:37.087Z,1.62
2019-03-18T19:07:06.075Z,1.82
2019-03-18T19:09:35.089Z,2.92
2019-03-18T19:12:04.169Z,2.62
2019-03-18T19:14:34.400Z,2.80
2019-03-18T19:17:05.042Z,3.70
2019-03-18T19:19:38.395Z,2.60
2019-03-18T19:22:09.011Z,2.30
2019-03-18T19:24:37.980Z,2.20
2019-03-18T19:27:06.943Z,2.02
2019-03-18T19:29:35.897Z,2.72
2019-03-18T19:32:05.689Z,2.10
2019-03-18T19:34:39.929Z,2.62
2019-03-18T19:37:10.137Z,2.75
2019-03-18T19:39:41.622Z,2.67
2019-03-18T19:42:10.641Z,2.55
2019-03-18T19:44:43.979Z,2.65
2019-03-18T19:47:12.995Z,2.50
2019-03-18T19:49:43.766Z,3.33
2019-03-18T19:52:14.757Z,2.80
2019-03-18T19:54:43.470Z,2.20
2019-03-18T19:57:22.231Z,2.37
2019-03-18T19:59:51.319Z,2.52
2019-03-18T20:02:22.653Z,2.30
2019-03-18T20:04:53.150Z,2.92
2019-03-18T20:07:22.105Z,2.27
2019-03-18T20:09:51.108Z,2.75
2019-03-18T20:12:20.112Z,3.17
2019-03-18T20:14:49.167Z,3.08
2019-03-18T20:17:18.805Z,2.58
2019-03-18T20:19:48.186Z,2.65
2019-03-18T20:22:17.197Z,2.08
2019-03-18T20:24:52.731Z,1.85
2019-03-18T20:27:17.644Z,2.35
2019-03-18T20:29:48.052Z,1.87
2019-03-18T20:32:18.808Z,2.12
2019-03-18T20:34:49.692Z,2.53
2019-03-18T20:37:23.517Z,2.30
2019-03-18T20:39:52.728Z,1.75
2019-03-18T20:42:21.702Z,2.58
2019-03-18T20:44:53.729Z,1.82
2019-03-18T20:47:22.864Z,1.90
2019-03-18T20:49:51.890Z,2.22
2019-03-18T20:52:23.860Z,2.60
2019-03-18T20:54:52.823Z,2.35
2019-03-18T20:57:21.923Z,2.25
2019-03-18T20:59:52.368Z,2.37
2019-03-18T21:02:21.321Z,2.50
2019-03-18T21:04:50.322Z,2.10
2019-03-18T21:07:19.289Z,2.12
2019-03-18T21:09:50.158Z,2.60
2019-03-18T21:12:19.122Z,2.80
2019-03-18T21:14:48.159Z,2.42
2019-03-18T21:17:17.116Z,3.02
2019-03-18T21:19:46.273Z,3.33
2019-03-18T21:22:15.661Z,2.47
2019-03-18T21:24:46.730Z,2.70
2019-03-18T21:27:15.747Z,3.22
2019-03-18T21:29:44.738Z,2.40
2019-03-18T21:32:16.113Z,2.45
2019-03-18T21:34:45.064Z,2.10
2019-03-18T21:37:16.573Z,2.55
2019-03-18T21:39:45.539Z,2.40
2019-03-18T21:44:49.959Z,2.35
2019-03-18T21:47:19.735Z,2.70
2019-03-18T21:49:53.253Z,2.75
2019-03-18T21:52:22.225Z,2.35
2019-03-18T21:54:51.193Z,2.20
2019-03-18T21:57:20.234Z,2.60
2019-03-18T21:59:52.159Z,2.65
2019-03-18T22:02:25.373Z,3.40
2019-03-18T22:04:54.327Z,2.75
2019-03-18T22:07:23.352Z,3.00
2019-03-18T22:09:54.746Z,2.58
2019-03-18T22:12:23.786Z,3.00
2019-03-18T22:14:54.229Z,2.85
2019-03-18T22:17:23.195Z,2.65
2019-03-18T22:19:53.746Z,3.20
2019-03-18T22:22:28.731Z,3.92
2019-03-18T22:25:00.424Z,4.40
2019-03-18T22:27:29.571Z,4.58
2019-03-18T22:30:00.361Z,5.03
2019-03-18T22:32:32.406Z,5.37
2019-03-18T22:35:02.633Z,4.95
2019-03-18T22:37:36.415Z,5.30
2019-03-18T22:40:06.827Z,5.53
2019-03-18T22:42:37.608Z,5.35
2019-03-18T22:45:08.240Z,5.40
2019-03-18T22:47:38.252Z,4.90
2019-03-18T22:52:47.043Z,4.70
2019-03-18T22:55:16.201Z,4.42
2019-03-18T22:57:45.181Z,5.20
2019-03-18T23:00:16.970Z,5.00
2019-03-18T23:02:49.312Z,5.58
2019-03-18T23:05:18.270Z,4.85
2019-03-18T23:07:47.340Z,5.50
2019-03-18T23:10:16.369Z,4.90
2019-03-18T23:12:45.401Z,4.70
2019-03-18T23:15:14.588Z,4.62
2019-03-18T23:17:43.532Z,5.27
2019-03-18T23:20:15.700Z,5.70
2019-03-18T23:22:47.544Z,3.98
2019-03-18T23:25:16.549Z,4.10
2019-03-18T23:27:47.424Z,4.75
2019-03-18T23:30:18.846Z,4.53
2019-03-18T23:32:51.752Z,4.25
2019-03-18T23:35:23.621Z,5.47
2019-03-18T23:37:52.574Z,5.30
2019-03-18T23:40:21.530Z,4.97
2019-03-18T23:42:51.772Z,5.12
2019-03-18T23:45:24.071Z,5.12
2019-03-18T23:47:56.483Z,4.78
2019-03-18T23:50:26.997Z,5.15
2019-03-18T23:52:55.981Z,4.83
2019-03-18T23:55:26.559Z,5.08
2019-03-18T23:57:57.065Z,4.90
